D/T METAR WX W/DIR W/SPE G/SPE TEMP DEWP
7/06/20 09:50 EGNH 070850Z 34011KT 9999 FEW010 13/11 Q1008 NNW (340°) 12.7mph 13°C 11°C
7/06/20 09:20 EGNH 070820Z 36011KT 9999 SCT011 14/11 Q1008 N (360°) 12.7mph 14°C 11°C
7/06/20 08:50 EGNH 070750Z 35011KT 9999 FEW011 13/10 Q1007 N (350°) 12.7mph 13°C 10°C
7/06/20 08:20 EGNH 070720Z 35010KT 9999 FEW009 12/10 Q1007 N (350°) 11.5mph 12°C 10°C
7/06/20 07:50 EGNH 070650Z 35013KT 9999 SCT009 12/11 Q1006 N (350°) 15.0mph 12°C 11°C
7/06/20 07:20 EGNH 070620Z 35011KT 9999 FEW009 12/11 Q1006 N (350°) 12.7mph 12°C 11°C
7/06/20 06:50 EGNH 070550Z 35009KT 9999 FEW010 12/11 Q1005 N (350°) 10.4mph 12°C 11°C
7/06/20 06:20 EGNH 070520Z 33009KT 290V350 9999 FEW005 SCT040 12/11 Q1005 NNW (330°) 10.4mph 12°C 11°C
6/06/20 20:50 EGNH 061950Z 33010KT 9999 FEW035 13/11 Q1001 NNW (330°) 11.5mph 13°C 11°C
6/06/20 20:20 EGNH 061920Z 32015KT 9999 FEW035 14/11 Q1001 NW (320°) 17.3mph 14°C 11°C
6/06/20 19:20 EGNH 061820Z 31012KT 9999 FEW025 16/10 Q1000 NW (310°) 13.8mph 16°C 10°C
6/06/20 18:50 EGNH 061750Z 32013KT 9999 SCT030 15/10 Q1000 NW (320°) 15.0mph 15°C 10°C
6/06/20 18:20 EGNH 061720Z 31013KT 9999 FEW021 SCT045 16/08 Q1000 NW (310°) 15.0mph 16°C 8°C
6/06/20 17:50 EGNH 061650Z 32013KT 9999 FEW020 SCT043 16/08 Q0999 NW (320°) 15.0mph 16°C 8°C
6/06/20 17:20 EGNH 061620Z 33014KT 9999 FEW020 SCT040 15/08 Q0999 NNW (330°) 16.1mph 15°C 8°C
6/06/20 16:20 EGNH 061520Z 34014KT 9999 FEW018 SCT028 16/08 Q0998 NNW (340°) 16.1mph 16°C 8°C
6/06/20 15:50 EGNH 061450Z 32016KT 9999 FEW018 SCT032 15/08 Q0998 NW (320°) 18.4mph 15°C 8°C
6/06/20 15:20 EGNH 061420Z 34016KT 9999 FEW018 SCT030 15/09 Q0998 NNW (340°) 18.4mph 15°C 9°C
6/06/20 14:20 EGNH 061320Z 32016KT 9999 FEW011 SCT024 14/09 Q0997 NW (320°) 18.4mph 14°C 9°C
6/06/20 13:50 EGNH 061250Z 33019KT 9999 FEW010 SCT045 15/09 Q0997 NNW (330°) 21.9mph 15°C 9°C
6/06/20 13:20 EGNH 061220Z 33018KT 9999 FEW010 SCT045 15/10 Q0996 NNW (330°) 20.7mph 15°C 10°C
6/06/20 12:50 EGNH 061150Z 32018KT 9999 FEW018 SCT042 14/10 Q0996 NW (320°) 20.7mph 14°C 10°C
6/06/20 12:20 EGNH 061120Z 32021KT 9999 FEW018 SCT042 14/09 Q0995 NW (320°) 24.2mph 14°C 9°C
6/06/20 11:50 EGNH 061050Z 33020KT 9999 FEW024 SCT048 14/09 Q0995 NNW (330°) 23.0mph 14°C 9°C
6/06/20 11:20 EGNH 061020Z 33021G31KT 9999 FEW016 SCT048 14/09 Q0995 NNW (330°) 24.2mph 35.7mph 14°C 9°C
6/06/20 10:50 EGNH 060950Z 33023KT 9999 FEW016 SCT035 14/09 Q0994 NNW (330°) 26.5mph 14°C 9°C
6/06/20 10:20 EGNH 060920Z 33021KT 9999 FEW013 SCT025 13/10 Q0994 NNW (330°) 24.2mph 13°C 10°C
6/06/20 09:50 EGNH 060850Z 33021KT 9999 FEW017 SCT039 13/10 Q0993 NNW (330°) 24.2mph 13°C 10°C
6/06/20 09:20 EGNH 060820Z 33023KT 9999 SCT018 13/09 Q0993 NNW (330°) 26.5mph 13°C 9°C
6/06/20 08:50 EGNH 060750Z 34024G34KT 9999 SCT019 13/10 Q0992 NNW (340°) 27.6mph 39.1mph 13°C 10°C
6/06/20 08:20 EGNH 060720Z 34022KT 8000 BKN014 12/09 Q0992 RERA NNW (340°) 25.3mph 12°C 9°C
6/06/20 07:50 EGNH 060650Z 33021KT 8000 BKN012 11/10 Q0992 RERA NNW (330°) 24.2mph 11°C 10°C
6/06/20 07:20 EGNH 060620Z 31020G30KT 8000 BKN010 11/10 Q0991 RERA NW (310°) 23.0mph 34.5mph 11°C 10°C
6/06/20 06:50 EGNH 060550Z 31021KT 5000 RA BKN004 10/09 Q0992 RA NW (310°) 24.2mph 10°C 9°C
6/06/20 06:20 EGNH 060520Z 30027G37KT 5000 RA BKN007 10/09 Q0991 RA WNW (300°) 31.1mph 42.6mph 10°C 9°C
5/06/20 20:50 EGNH 051950Z 32028KT 9999 VCSH SCT025 11/05 Q0996 VCSH NW (320°) 32.2mph 11°C 5°C
5/06/20 20:20 EGNH 051920Z 31027G39KT 9999 VCSH SCT027 11/05 Q0996 VCSH NW (310°) 31.1mph 44.9mph 11°C 5°C
5/06/20 19:50 EGNH 051850Z 32028G38KT 9999 VCSH FEW010 SCT024 11/05 Q0996 VCSH NW (320°) 32.2mph 43.7mph 11°C 5°C
5/06/20 19:20 EGNH 051820Z 31026G37KT 9999 VCSH FEW014 SCT030 11/05 Q0996 VCSH NW (310°) 29.9mph 42.6mph 11°C 5°C
5/06/20 18:50 EGNH 051750Z 31028G43KT 9999 FEW030 12/05 Q0996 NW (310°) 32.2mph 49.5mph 12°C 5°C
5/06/20 18:20 EGNH 051720Z 32026G38KT 9999 FEW022 12/04 Q0996 NW (320°) 29.9mph 43.7mph 12°C 4°C
5/06/20 17:50 EGNH 051650Z 31026KT 9999 FEW021 13/05 Q0996 NW (310°) 29.9mph 13°C 5°C
5/06/20 17:20 EGNH 051620Z 31026KT 9999 FEW025 13/05 Q0996 NW (310°) 29.9mph 13°C 5°C
5/06/20 16:50 EGNH 051550Z 32025G35KT 9999 FEW015 SCT027 13/05 Q0996 NW (320°) 28.8mph 40.3mph 13°C 5°C
5/06/20 16:20 EGNH 051520Z 31023KT 9999 FEW015 SCT033 13/05 Q0996 NW (310°) 26.5mph 13°C 5°C
5/06/20 15:50 EGNH 051450Z 31023G34KT 9999 FEW015 SCT026 13/05 Q0996 NW (310°) 26.5mph 39.1mph 13°C 5°C
5/06/20 15:20 EGNH 051420Z 31024G34KT 9999 FEW012 SCT026 13/06 Q0996 NW (310°) 27.6mph 39.1mph 13°C 6°C
5/06/20 14:50 EGNH 051350Z 31024KT 9999 FEW013 SCT030 13/05 Q0996 NW (310°) 27.6mph 13°C 5°C
5/06/20 14:20 EGNH 051320Z 32022KT 9999 FEW013 SCT030 14/05 Q0996 NW (320°) 25.3mph 14°C 5°C
5/06/20 13:50 EGNH 051250Z 32024KT 9999 FEW013 SCT035 13/04 Q0996 NW (320°) 27.6mph 13°C 4°C
5/06/20 13:20 EGNH 051220Z 32021KT 9999 FEW013 SCT035 13/05 Q0996 NW (320°) 24.2mph 13°C 5°C
5/06/20 12:50 EGNH 051150Z 32021KT 9999 FEW010 SCT032 13/05 Q0996 NW (320°) 24.2mph 13°C 5°C
5/06/20 12:20 EGNH 051120Z 32018G28KT 9999 FEW010 SCT033 13/04 Q0996 NW (320°) 20.7mph 32.2mph 13°C 4°C
5/06/20 11:50 EGNH 051050Z 32020G30KT 290V350 9999 FEW010 SCT034 12/04 Q0996 NW (320°) 23.0mph 34.5mph 12°C 4°C
5/06/20 11:20 EGNH 051020Z 33020KT 9999 FEW012 SCT028 12/04 Q0996 NNW (330°) 23.0mph 12°C 4°C
5/06/20 10:50 EGNH 050950Z 33020KT 9999 FEW012 SCT031 12/05 Q0996 NNW (330°) 23.0mph 12°C 5°C
5/06/20 09:50 EGNH 050850Z 33012KT 9999 VCSH FEW005 SCT020 10/06 Q0996 VCSH NNW (330°) 13.8mph 10°C 6°C
5/06/20 09:20 EGNH 050820Z 35012KT 9999 VCSH FEW008 SCT021 10/06 Q0997 VCSH N (350°) 13.8mph 10°C 6°C
5/06/20 08:50 EGNH 050750Z 36012KT 9999 VCSH FEW011 SCT026 10/06 Q0997 VCSH N (360°) 13.8mph 10°C 6°C
5/06/20 07:50 EGNH 050650Z 35010KT 9999 VCSH FEW006 SCT018 BKN028 09/07 Q0996 VCSH N (350°) 11.5mph 9°C 7°C
5/06/20 07:20 EGNH 050620Z 35014KT 300V010 9999 -SHRA FEW008 SCT015 BKN028 09/05 Q0997 -SHRA N (350°) 16.1mph 9°C 5°C
5/06/20 06:20 EGNH 050520Z 03008KT 9999 FEW012 SCT031 09/06 Q0996 NNE (30°) 9.2mph 9°C 6°C
4/06/20 20:50 EGNH 041950Z 32017KT 9999 SCT025 12/08 Q0999 NW (320°) 19.6mph 12°C 8°C
4/06/20 20:20 EGNH 041920Z 31018KT 9999 SCT021 13/08 Q0999 NW (310°) 20.7mph 13°C 8°C
4/06/20 19:50 EGNH 041850Z 30015KT 9999 SCT019 13/09 Q0999 WNW (300°) 17.3mph 13°C 9°C
4/06/20 19:20 EGNH 041820Z 30016KT 9999 FEW016 SCT041 13/08 Q0999 WNW (300°) 18.4mph 13°C 8°C
4/06/20 18:50 EGNH 041750Z 30016KT 9999 VCSH FEW016 BKN041 13/08 Q1000 VCSH WNW (300°) 18.4mph 13°C 8°C
4/06/20 18:20 EGNH 041720Z 30016KT 9999 VCSH FEW010 BKN047 13/09 Q1000 VCSH WNW (300°) 18.4mph 13°C 9°C
4/06/20 17:50 EGNH 041650Z 30015KT 9999 VCSH FEW005 SCT014 BKN049 13/10 Q1000 VCSH WNW (300°) 17.3mph 13°C 10°C
4/06/20 17:20 EGNH 041620Z 30015KT 9999 VCSH FEW005 SCT023 12/10 Q1001 VCSH WNW (300°) 17.3mph 12°C 10°C
4/06/20 16:50 EGNH 041550Z 29015KT 9999 SCT012 12/09 Q1001 WNW (290°) 17.3mph 12°C 9°C
4/06/20 16:20 EGNH 041520Z 29015KT 9999 FEW013 SCT028 13/09 Q1001 WNW (290°) 17.3mph 13°C 9°C
4/06/20 15:50 EGNH 041450Z 30013KT 9999 FEW014 SCT030 13/09 Q1002 WNW (300°) 15.0mph 13°C 9°C
4/06/20 15:20 EGNH 041420Z 29014KT 9999 FEW015 SCT033 13/09 Q1002 WNW (290°) 16.1mph 13°C 9°C
4/06/20 14:50 EGNH 041350Z 30014KT 9999 FEW015 SCT020 13/09 Q1002 WNW (300°) 16.1mph 13°C 9°C
4/06/20 14:20 EGNH 041320Z 31014KT 9999 FEW012 SCT030 14/08 Q1002 NW (310°) 16.1mph 14°C 8°C
4/06/20 13:50 EGNH 041250Z 31014KT 9999 FEW012 SCT023 15/08 Q1003 NW (310°) 16.1mph 15°C 8°C
4/06/20 13:20 EGNH 041220Z 31015KT 9999 FEW012 SCT023 14/08 Q1003 NW (310°) 17.3mph 14°C 8°C
4/06/20 12:50 EGNH 041150Z 32015KT 9999 FEW018 SCT032 14/08 Q1003 NW (320°) 17.3mph 14°C 8°C
4/06/20 12:20 EGNH 041120Z 32016KT 9999 VCSH FEW012 SCT031 14/07 Q1004 VCSH NW (320°) 18.4mph 14°C 7°C
4/06/20 11:50 EGNH 041050Z 33014KT 9999 VCSH FEW012 SCT031 14/07 Q1004 VCSH NNW (330°) 16.1mph 14°C 7°C
4/06/20 11:20 EGNH 041020Z 32015KT 9999 VCSH FEW025 SCT041 13/07 Q1004 VCSH NW (320°) 17.3mph 13°C 7°C
4/06/20 10:50 EGNH 040950Z 31015KT 9999 FEW022 SCT041 13/07 Q1004 NW (310°) 17.3mph 13°C 7°C
4/06/20 10:20 EGNH 040920Z 31011KT 9999 FEW020 SCT038 12/07 Q1004 NW (310°) 12.7mph 12°C 7°C
4/06/20 09:50 EGNH 040850Z 31011KT 9999 SCT020 13/07 Q1005 NW (310°) 12.7mph 13°C 7°C
4/06/20 09:20 EGNH 040820Z 32010KT 9999 SCT020 12/07 Q1005 NW (320°) 11.5mph 12°C 7°C
4/06/20 08:50 EGNH 040750Z 33011KT 9999 SCT022 12/07 Q1005 NNW (330°) 12.7mph 12°C 7°C
4/06/20 08:20 EGNH 040720Z 18004KT 9999 SCT017 11/07 Q1005 S (180°) 4.6mph 11°C 7°C
4/06/20 07:50 EGNH 040650Z 17006KT 9999 FEW018 SCT029 10/07 Q1006 S (170°) 6.9mph 10°C 7°C
4/06/20 07:20 EGNH 040620Z 17005KT 9999 FEW018 SCT030 09/07 Q1006 S (170°) 5.8mph 9°C 7°C
4/06/20 06:50 EGNH 040550Z 16005KT 9999 SCT039 09/07 Q1006 SSE (160°) 5.8mph 9°C 7°C
4/06/20 06:20 EGNH 040520Z 13004KT 9999 FEW030 09/07 Q1007 SE (130°) 4.6mph 9°C 7°C
3/06/20 20:50 EGNH 031950Z 05007KT 030V090 9999 FEW026 13/06 Q1012 NE (50°) 8.1mph 13°C 6°C
3/06/20 20:20 EGNH 031920Z 05008KT 9999 SCT026 13/06 Q1012 NE (50°) 9.2mph 13°C 6°C
3/06/20 19:20 EGNH 031820Z 04009KT 9999 FEW020 14/06 Q1012 NE (40°) 10.4mph 14°C 6°C
3/06/20 18:50 EGNH 031750Z 05012KT 9999 FEW020 BKN046 13/06 Q1012 NE (50°) 13.8mph 13°C 6°C